sensor_id;sensor_type;location;lat;lon;timestamp;P1;durP1;ratioP1;P2;durP2;ratioP2
18296;SDS011;18066;52.106;5.534;2022-11-15T00:02:20;35.30;;;16.33;;
18296;SDS011;18066;52.106;5.534;2022-11-15T00:04:46;35.70;;;16.57;;
18296;SDS011;18066;52.106;5.534;2022-11-15T00:07:13;40.67;;;17.90;;
18296;SDS011;18066;52.106;5.534;2022-11-15T00:09:41;40.10;;;17.73;;
18296;SDS011;18066;52.106;5.534;2022-11-15T00:12:08;36.93;;;16.27;;
18296;SDS011;18066;52.106;5.534;2022-11-15T00:14:34;39.63;;;16.90;;
18296;SDS011;18066;52.106;5.534;2022-11-15T00:17:01;35.70;;;16.83;;
18296;SDS011;18066;52.106;5.534;2022-11-15T00:19:28;45.27;;;18.23;;
18296;SDS011;18066;52.106;5.534;2022-11-15T00:21:55;40.27;;;17.70;;
18296;SDS011;18066;52.106;5.534;2022-11-15T00:24:21;41.33;;;18.60;;
18296;SDS011;18066;52.106;5.534;2022-11-15T00:26:49;48.17;;;18.47;;
18296;SDS011;18066;52.106;5.534;2022-11-15T00:29:16;43.57;;;18.63;;
18296;SDS011;18066;52.106;5.534;2022-11-15T00:31:43;49.43;;;19.67;;
18296;SDS011;18066;52.106;5.534;2022-11-15T00:34:09;40.50;;;17.90;;
18296;SDS011;18066;52.106;5.534;2022-11-15T00:36:36;36.73;;;18.30;;
18296;SDS011;18066;52.106;5.534;2022-11-15T00:39:03;36.00;;;16.27;;
18296;SDS011;18066;52.106;5.534;2022-11-15T00:41:30;42.50;;;18.43;;
18296;SDS011;18066;52.106;5.534;2022-11-15T00:43:59;47.20;;;19.00;;
18296;SDS011;18066;52.106;5.534;2022-11-15T00:46:25;39.90;;;17.43;;
18296;SDS011;18066;52.106;5.534;2022-11-15T00:48:52;43.27;;;18.80;;
18296;SDS011;18066;52.106;5.534;2022-11-15T00:51:19;50.77;;;19.47;;
18296;SDS011;18066;52.106;5.534;2022-11-15T00:53:45;45.30;;;18.53;;
18296;SDS011;18066;52.106;5.534;2022-11-15T00:56:12;48.70;;;18.33;;
18296;SDS011;18066;52.106;5.534;2022-11-15T00:58:39;38.23;;;17.97;;
18296;SDS011;18066;52.106;5.534;2022-11-15T01:01:08;44.27;;;18.83;;
18296;SDS011;18066;52.106;5.534;2022-11-15T01:03:36;39.13;;;17.93;;
18296;SDS011;18066;52.106;5.534;2022-11-15T01:06:04;42.43;;;18.27;;
18296;SDS011;18066;52.106;5.534;2022-11-15T01:08:31;44.40;;;18.47;;
18296;SDS011;18066;52.106;5.534;2022-11-15T01:11:02;39.80;;;17.87;;
18296;SDS011;18066;52.106;5.534;2022-11-15T01:13:30;41.90;;;17.87;;
18296;SDS011;18066;52.106;5.534;2022-11-15T01:15:57;36.43;;;17.63;;
18296;SDS011;18066;52.106;5.534;2022-11-15T01:18:25;42.23;;;18.20;;
18296;SDS011;18066;52.106;5.534;2022-11-15T01:20:52;36.90;;;16.13;;
18296;SDS011;18066;52.106;5.534;2022-11-15T01:23:18;38.93;;;18.17;;
18296;SDS011;18066;52.106;5.534;2022-11-15T01:25:45;37.07;;;17.80;;
18296;SDS011;18066;52.106;5.534;2022-11-15T01:28:12;31.90;;;16.27;;
18296;SDS011;18066;52.106;5.534;2022-11-15T01:30:39;35.57;;;17.47;;
18296;SDS011;18066;52.106;5.534;2022-11-15T01:33:05;40.33;;;17.63;;
18296;SDS011;18066;52.106;5.534;2022-11-15T01:35:33;39.97;;;18.37;;
18296;SDS011;18066;52.106;5.534;2022-11-15T01:38:04;42.50;;;17.20;;
18296;SDS011;18066;52.106;5.534;2022-11-15T01:40:31;36.47;;;16.27;;
18296;SDS011;18066;52.106;5.534;2022-11-15T01:42:57;41.17;;;17.53;;
18296;SDS011;18066;52.106;5.534;2022-11-15T01:45:24;32.80;;;17.17;;
18296;SDS011;18066;52.106;5.534;2022-11-15T01:47:52;39.23;;;17.80;;
18296;SDS011;18066;52.106;5.534;2022-11-15T01:50:21;34.57;;;17.23;;
18296;SDS011;18066;52.106;5.534;2022-11-15T01:52:53;29.07;;;16.77;;
18296;SDS011;18066;52.106;5.534;2022-11-15T01:55:21;38.80;;;17.60;;
18296;SDS011;18066;52.106;5.534;2022-11-15T01:57:51;33.07;;;18.13;;
18296;SDS011;18066;52.106;5.534;2022-11-15T02:00:21;38.90;;;18.30;;
18296;SDS011;18066;52.106;5.534;2022-11-15T02:02:48;33.53;;;17.70;;
18296;SDS011;18066;52.106;5.534;2022-11-15T02:05:14;37.30;;;17.80;;
18296;SDS011;18066;52.106;5.534;2022-11-15T02:07:41;32.60;;;17.67;;
18296;SDS011;18066;52.106;5.534;2022-11-15T02:10:10;33.87;;;17.13;;
18296;SDS011;18066;52.106;5.534;2022-11-15T02:12:39;44.20;;;20.03;;
18296;SDS011;18066;52.106;5.534;2022-11-15T02:15:07;35.07;;;18.20;;
18296;SDS011;18066;52.106;5.534;2022-11-15T02:26:40;35.43;;;17.60;;
18296;SDS011;18066;52.106;5.534;2022-11-15T02:29:45;34.03;;;17.93;;
18296;SDS011;18066;52.106;5.534;2022-11-15T02:32:28;38.20;;;18.53;;
18296;SDS011;18066;52.106;5.534;2022-11-15T02:35:01;35.63;;;18.50;;
18296;SDS011;18066;52.106;5.534;2022-11-15T02:37:34;36.70;;;18.13;;
18296;SDS011;18066;52.106;5.534;2022-11-15T02:40:06;42.73;;;18.83;;
18296;SDS011;18066;52.106;5.534;2022-11-15T02:42:39;35.37;;;18.00;;
18296;SDS011;18066;52.106;5.534;2022-11-15T02:45:29;36.93;;;18.67;;
18296;SDS011;18066;52.106;5.534;2022-11-15T02:48:00;35.30;;;18.67;;
18296;SDS011;18066;52.106;5.534;2022-11-15T02:50:30;35.33;;;17.87;;
18296;SDS011;18066;52.106;5.534;2022-11-15T02:52:58;34.60;;;18.20;;
18296;SDS011;18066;52.106;5.534;2022-11-15T02:55:26;34.27;;;18.33;;
18296;SDS011;18066;52.106;5.534;2022-11-15T02:57:57;37.93;;;18.30;;
18296;SDS011;18066;52.106;5.534;2022-11-15T03:00:45;39.87;;;18.50;;
18296;SDS011;18066;52.106;5.534;2022-11-15T03:03:30;33.97;;;18.13;;
18296;SDS011;18066;52.106;5.534;2022-11-15T03:06:14;33.03;;;16.83;;
18296;SDS011;18066;52.106;5.534;2022-11-15T03:08:50;34.37;;;19.27;;
18296;SDS011;18066;52.106;5.534;2022-11-15T03:11:24;39.83;;;18.63;;
18296;SDS011;18066;52.106;5.534;2022-11-15T03:13:53;30.60;;;17.87;;
18296;SDS011;18066;52.106;5.534;2022-11-15T03:16:24;30.87;;;18.30;;
18296;SDS011;18066;52.106;5.534;2022-11-15T03:18:58;33.30;;;19.33;;
18296;SDS011;18066;52.106;5.534;2022-11-15T03:21:29;32.23;;;18.53;;
18296;SDS011;18066;52.106;5.534;2022-11-15T03:23:59;31.77;;;18.90;;
18296;SDS011;18066;52.106;5.534;2022-11-15T03:26:29;32.80;;;18.13;;
18296;SDS011;18066;52.106;5.534;2022-11-15T03:28:57;33.03;;;18.47;;
18296;SDS011;18066;52.106;5.534;2022-11-15T03:31:28;37.00;;;19.33;;
18296;SDS011;18066;52.106;5.534;2022-11-15T03:34:17;34.53;;;18.33;;
18296;SDS011;18066;52.106;5.534;2022-11-15T03:36:47;31.20;;;17.87;;
18296;SDS011;18066;52.106;5.534;2022-11-15T03:39:15;33.03;;;19.13;;
18296;SDS011;18066;52.106;5.534;2022-11-15T03:41:43;35.23;;;19.20;;
18296;SDS011;18066;52.106;5.534;2022-11-15T03:44:16;36.40;;;19.00;;
18296;SDS011;18066;52.106;5.534;2022-11-15T03:46:51;40.23;;;17.83;;
18296;SDS011;18066;52.106;5.534;2022-11-15T03:49:27;30.47;;;17.90;;
18296;SDS011;18066;52.106;5.534;2022-11-15T03:51:56;30.13;;;17.33;;
18296;SDS011;18066;52.106;5.534;2022-11-15T03:54:24;37.73;;;18.03;;
18296;SDS011;18066;52.106;5.534;2022-11-15T03:56:50;31.07;;;17.63;;
18296;SDS011;18066;52.106;5.534;2022-11-15T03:59:17;35.73;;;18.20;;
18296;SDS011;18066;52.106;5.534;2022-11-15T04:01:44;31.10;;;18.17;;
18296;SDS011;18066;52.106;5.534;2022-11-15T04:04:11;36.40;;;19.03;;
18296;SDS011;18066;52.106;5.534;2022-11-15T04:06:39;35.33;;;19.23;;
18296;SDS011;18066;52.106;5.534;2022-11-15T04:09:06;39.07;;;19.27;;
18296;SDS011;18066;52.106;5.534;2022-11-15T04:11:33;36.43;;;21.00;;
18296;SDS011;18066;52.106;5.534;2022-11-15T04:13:59;43.47;;;20.90;;
18296;SDS011;18066;52.106;5.534;2022-11-15T04:16:26;36.77;;;19.53;;
18296;SDS011;18066;52.106;5.534;2022-11-15T04:18:53;37.27;;;19.87;;
18296;SDS011;18066;52.106;5.534;2022-11-15T04:21:33;44.27;;;21.93;;
18296;SDS011;18066;52.106;5.534;2022-11-15T04:24:19;37.47;;;20.93;;
18296;SDS011;18066;52.106;5.534;2022-11-15T04:26:45;43.50;;;21.90;;
18296;SDS011;18066;52.106;5.534;2022-11-15T04:29:12;32.90;;;20.10;;
18296;SDS011;18066;52.106;5.534;2022-11-15T04:31:56;40.23;;;22.23;;
18296;SDS011;18066;52.106;5.534;2022-11-15T04:34:23;38.73;;;21.70;;
18296;SDS011;18066;52.106;5.534;2022-11-15T04:36:50;36.97;;;21.37;;
18296;SDS011;18066;52.106;5.534;2022-11-15T04:39:37;36.53;;;20.17;;
18296;SDS011;18066;52.106;5.534;2022-11-15T04:42:04;39.47;;;21.13;;
18296;SDS011;18066;52.106;5.534;2022-11-15T04:44:31;38.47;;;20.77;;
18296;SDS011;18066;52.106;5.534;2022-11-15T04:46:57;37.80;;;20.87;;
18296;SDS011;18066;52.106;5.534;2022-11-15T04:49:24;42.53;;;21.30;;
18296;SDS011;18066;52.106;5.534;2022-11-15T04:51:51;35.10;;;21.00;;
18296;SDS011;18066;52.106;5.534;2022-11-15T04:54:18;37.33;;;20.83;;
18296;SDS011;18066;52.106;5.534;2022-11-15T04:56:46;42.50;;;21.10;;
18296;SDS011;18066;52.106;5.534;2022-11-15T04:59:13;43.53;;;21.60;;
18296;SDS011;18066;52.106;5.534;2022-11-15T05:01:40;41.20;;;21.57;;
18296;SDS011;18066;52.106;5.534;2022-11-15T05:04:06;36.50;;;20.00;;
18296;SDS011;18066;52.106;5.534;2022-11-15T05:06:44;38.80;;;20.67;;
18296;SDS011;18066;52.106;5.534;2022-11-15T05:09:11;38.90;;;21.20;;
18296;SDS011;18066;52.106;5.534;2022-11-15T05:11:39;36.30;;;20.67;;
18296;SDS011;18066;52.106;5.534;2022-11-15T05:14:07;36.57;;;20.03;;
18296;SDS011;18066;52.106;5.534;2022-11-15T05:16:34;41.40;;;20.80;;
18296;SDS011;18066;52.106;5.534;2022-11-15T05:19:01;35.10;;;19.60;;
18296;SDS011;18066;52.106;5.534;2022-11-15T05:21:27;38.43;;;20.97;;
18296;SDS011;18066;52.106;5.534;2022-11-15T05:23:55;36.37;;;21.27;;
18296;SDS011;18066;52.106;5.534;2022-11-15T05:26:22;45.07;;;21.83;;
18296;SDS011;18066;52.106;5.534;2022-11-15T05:28:51;32.53;;;20.80;;
18296;SDS011;18066;52.106;5.534;2022-11-15T05:31:20;38.07;;;21.63;;
18296;SDS011;18066;52.106;5.534;2022-11-15T05:33:48;41.27;;;22.10;;
18296;SDS011;18066;52.106;5.534;2022-11-15T05:36:17;42.23;;;20.87;;
18296;SDS011;18066;52.106;5.534;2022-11-15T05:38:47;40.27;;;21.70;;
18296;SDS011;18066;52.106;5.534;2022-11-15T05:41:14;38.03;;;20.93;;
18296;SDS011;18066;52.106;5.534;2022-11-15T05:43:43;38.80;;;20.73;;
18296;SDS011;18066;52.106;5.534;2022-11-15T05:46:10;34.27;;;20.47;;
18296;SDS011;18066;52.106;5.534;2022-11-15T05:48:41;38.73;;;20.73;;
18296;SDS011;18066;52.106;5.534;2022-11-15T05:51:11;37.47;;;21.60;;
18296;SDS011;18066;52.106;5.534;2022-11-15T05:53:40;41.87;;;21.40;;
18296;SDS011;18066;52.106;5.534;2022-11-15T05:56:07;36.53;;;21.30;;
18296;SDS011;18066;52.106;5.534;2022-11-15T05:58:35;42.30;;;22.07;;
18296;SDS011;18066;52.106;5.534;2022-11-15T06:01:03;40.07;;;20.77;;
18296;SDS011;18066;52.106;5.534;2022-11-15T06:03:31;41.57;;;21.80;;
18296;SDS011;18066;52.106;5.534;2022-11-15T06:05:59;44.63;;;22.17;;
18296;SDS011;18066;52.106;5.534;2022-11-15T06:08:25;37.63;;;21.43;;
18296;SDS011;18066;52.106;5.534;2022-11-15T06:10:53;43.07;;;23.00;;
18296;SDS011;18066;52.106;5.534;2022-11-15T06:13:19;37.40;;;21.13;;
18296;SDS011;18066;52.106;5.534;2022-11-15T06:15:46;41.80;;;23.00;;
18296;SDS011;18066;52.106;5.534;2022-11-15T06:18:13;39.60;;;22.00;;
18296;SDS011;18066;52.106;5.534;2022-11-15T06:20:40;40.80;;;22.57;;
18296;SDS011;18066;52.106;5.534;2022-11-15T06:23:08;40.97;;;22.00;;
18296;SDS011;18066;52.106;5.534;2022-11-15T06:25:35;41.53;;;20.97;;
18296;SDS011;18066;52.106;5.534;2022-11-15T06:28:02;42.57;;;22.87;;
18296;SDS011;18066;52.106;5.534;2022-11-15T06:30:29;47.97;;;22.53;;
18296;SDS011;18066;52.106;5.534;2022-11-15T06:32:59;44.63;;;25.97;;
18296;SDS011;18066;52.106;5.534;2022-11-15T06:35:27;44.43;;;23.20;;
18296;SDS011;18066;52.106;5.534;2022-11-15T06:37:54;44.40;;;23.43;;
18296;SDS011;18066;52.106;5.534;2022-11-15T06:40:23;42.67;;;23.37;;
18296;SDS011;18066;52.106;5.534;2022-11-15T06:42:49;44.83;;;21.90;;
18296;SDS011;18066;52.106;5.534;2022-11-15T06:45:16;42.67;;;22.00;;
18296;SDS011;18066;52.106;5.534;2022-11-15T06:47:46;46.20;;;24.07;;
18296;SDS011;18066;52.106;5.534;2022-11-15T06:50:13;43.30;;;22.33;;
18296;SDS011;18066;52.106;5.534;2022-11-15T06:52:40;44.47;;;24.33;;
18296;SDS011;18066;52.106;5.534;2022-11-15T06:55:07;43.47;;;23.07;;
18296;SDS011;18066;52.106;5.534;2022-11-15T06:57:36;39.53;;;21.37;;
18296;SDS011;18066;52.106;5.534;2022-11-15T07:00:03;41.07;;;22.53;;
18296;SDS011;18066;52.106;5.534;2022-11-15T07:02:31;46.60;;;22.97;;
18296;SDS011;18066;52.106;5.534;2022-11-15T07:04:57;37.87;;;21.83;;
18296;SDS011;18066;52.106;5.534;2022-11-15T07:07:24;37.70;;;21.50;;
18296;SDS011;18066;52.106;5.534;2022-11-15T07:09:51;36.90;;;21.53;;
18296;SDS011;18066;52.106;5.534;2022-11-15T07:12:17;38.50;;;22.07;;
18296;SDS011;18066;52.106;5.534;2022-11-15T07:14:45;45.63;;;23.40;;
18296;SDS011;18066;52.106;5.534;2022-11-15T07:17:12;40.43;;;22.77;;
18296;SDS011;18066;52.106;5.534;2022-11-15T07:19:39;43.33;;;24.10;;
18296;SDS011;18066;52.106;5.534;2022-11-15T07:22:06;42.60;;;22.90;;
18296;SDS011;18066;52.106;5.534;2022-11-15T07:24:32;45.03;;;23.10;;
18296;SDS011;18066;52.106;5.534;2022-11-15T07:26:59;44.63;;;23.10;;
18296;SDS011;18066;52.106;5.534;2022-11-15T07:29:26;37.97;;;22.00;;
18296;SDS011;18066;52.106;5.534;2022-11-15T07:31:54;41.37;;;22.57;;
18296;SDS011;18066;52.106;5.534;2022-11-15T07:34:21;37.07;;;21.40;;
18296;SDS011;18066;52.106;5.534;2022-11-15T07:36:48;41.27;;;23.27;;
18296;SDS011;18066;52.106;5.534;2022-11-15T07:39:15;40.50;;;21.77;;
18296;SDS011;18066;52.106;5.534;2022-11-15T07:41:42;45.13;;;21.97;;
18296;SDS011;18066;52.106;5.534;2022-11-15T07:44:09;44.33;;;22.60;;
18296;SDS011;18066;52.106;5.534;2022-11-15T07:46:36;46.93;;;22.57;;
18296;SDS011;18066;52.106;5.534;2022-11-15T07:49:05;35.87;;;20.73;;
18296;SDS011;18066;52.106;5.534;2022-11-15T07:51:31;37.63;;;21.10;;
18296;SDS011;18066;52.106;5.534;2022-11-15T07:53:58;39.70;;;21.37;;
18296;SDS011;18066;52.106;5.534;2022-11-15T07:56:25;34.40;;;21.30;;
18296;SDS011;18066;52.106;5.534;2022-11-15T07:58:52;38.10;;;19.50;;
18296;SDS011;18066;52.106;5.534;2022-11-15T08:01:18;37.20;;;20.27;;
18296;SDS011;18066;52.106;5.534;2022-11-15T08:03:45;39.70;;;20.67;;
18296;SDS011;18066;52.106;5.534;2022-11-15T08:06:13;38.07;;;21.10;;
18296;SDS011;18066;52.106;5.534;2022-11-15T08:08:40;31.63;;;19.47;;
18296;SDS011;18066;52.106;5.534;2022-11-15T08:11:07;36.17;;;20.97;;
18296;SDS011;18066;52.106;5.534;2022-11-15T08:13:34;36.57;;;20.83;;
18296;SDS011;18066;52.106;5.534;2022-11-15T08:16:01;31.27;;;19.33;;
18296;SDS011;18066;52.106;5.534;2022-11-15T08:18:30;33.57;;;19.33;;
18296;SDS011;18066;52.106;5.534;2022-11-15T08:20:58;36.27;;;19.33;;
18296;SDS011;18066;52.106;5.534;2022-11-15T08:23:27;33.13;;;18.03;;
18296;SDS011;18066;52.106;5.534;2022-11-15T08:25:58;32.33;;;19.33;;
18296;SDS011;18066;52.106;5.534;2022-11-15T08:28:26;32.30;;;17.50;;
18296;SDS011;18066;52.106;5.534;2022-11-15T08:30:52;30.20;;;16.87;;
18296;SDS011;18066;52.106;5.534;2022-11-15T08:33:19;27.17;;;17.13;;
18296;SDS011;18066;52.106;5.534;2022-11-15T08:35:46;34.20;;;17.03;;
18296;SDS011;18066;52.106;5.534;2022-11-15T08:38:12;33.63;;;16.27;;
18296;SDS011;18066;52.106;5.534;2022-11-15T08:40:41;30.20;;;16.70;;
18296;SDS011;18066;52.106;5.534;2022-11-15T08:43:08;27.50;;;15.63;;
18296;SDS011;18066;52.106;5.534;2022-11-15T08:45:34;29.47;;;15.53;;
18296;SDS011;18066;52.106;5.534;2022-11-15T08:48:01;23.00;;;14.53;;
18296;SDS011;18066;52.106;5.534;2022-11-15T08:50:29;25.67;;;15.37;;
18296;SDS011;18066;52.106;5.534;2022-11-15T08:52:56;23.80;;;13.77;;
18296;SDS011;18066;52.106;5.534;2022-11-15T08:55:22;25.80;;;15.60;;
18296;SDS011;18066;52.106;5.534;2022-11-15T08:57:50;26.03;;;14.63;;
18296;SDS011;18066;52.106;5.534;2022-11-15T09:00:17;24.23;;;13.57;;
18296;SDS011;18066;52.106;5.534;2022-11-15T09:02:45;26.83;;;12.87;;
18296;SDS011;18066;52.106;5.534;2022-11-15T09:05:11;23.63;;;12.93;;
18296;SDS011;18066;52.106;5.534;2022-11-15T09:07:40;24.13;;;12.17;;
18296;SDS011;18066;52.106;5.534;2022-11-15T09:10:07;24.63;;;12.10;;
18296;SDS011;18066;52.106;5.534;2022-11-15T09:12:34;19.90;;;12.20;;
18296;SDS011;18066;52.106;5.534;2022-11-15T09:15:02;16.37;;;11.13;;
18296;SDS011;18066;52.106;5.534;2022-11-15T09:17:30;16.43;;;11.30;;
18296;SDS011;18066;52.106;5.534;2022-11-15T09:19:56;20.40;;;11.10;;
18296;SDS011;18066;52.106;5.534;2022-11-15T09:22:23;21.63;;;12.67;;
18296;SDS011;18066;52.106;5.534;2022-11-15T09:24:50;15.87;;;10.70;;
18296;SDS011;18066;52.106;5.534;2022-11-15T09:27:17;23.13;;;12.03;;
18296;SDS011;18066;52.106;5.534;2022-11-15T09:29:44;16.30;;;11.03;;
18296;SDS011;18066;52.106;5.534;2022-11-15T09:32:12;17.50;;;11.17;;
18296;SDS011;18066;52.106;5.534;2022-11-15T09:34:38;16.43;;;10.47;;
18296;SDS011;18066;52.106;5.534;2022-11-15T09:37:05;17.47;;;10.03;;
18296;SDS011;18066;52.106;5.534;2022-11-15T09:39:32;17.60;;;10.13;;
18296;SDS011;18066;52.106;5.534;2022-11-15T09:42:03;16.63;;;11.17;;
18296;SDS011;18066;52.106;5.534;2022-11-15T09:44:52;17.40;;;9.60;;
18296;SDS011;18066;52.106;5.534;2022-11-15T09:47:38;18.30;;;10.10;;
18296;SDS011;18066;52.106;5.534;2022-11-15T09:50:20;15.27;;;9.43;;
18296;SDS011;18066;52.106;5.534;2022-11-15T09:52:58;14.10;;;9.17;;
18296;SDS011;18066;52.106;5.534;2022-11-15T09:55:26;16.20;;;9.47;;
18296;SDS011;18066;52.106;5.534;2022-11-15T09:58:03;15.43;;;8.87;;
18296;SDS011;18066;52.106;5.534;2022-11-15T10:00:40;16.93;;;9.63;;
18296;SDS011;18066;52.106;5.534;2022-11-15T10:03:13;13.43;;;8.83;;
18296;SDS011;18066;52.106;5.534;2022-11-15T10:05:43;16.37;;;8.80;;
18296;SDS011;18066;52.106;5.534;2022-11-15T10:08:23;11.23;;;8.57;;
18296;SDS011;18066;52.106;5.534;2022-11-15T10:10:57;10.43;;;7.43;;
18296;SDS011;18066;52.106;5.534;2022-11-15T10:13:30;11.00;;;7.27;;
18296;SDS011;18066;52.106;5.534;2022-11-15T10:16:00;11.33;;;6.97;;
18296;SDS011;18066;52.106;5.534;2022-11-15T10:18:51;10.27;;;7.33;;
18296;SDS011;18066;52.106;5.534;2022-11-15T10:21:29;13.53;;;7.07;;
18296;SDS011;18066;52.106;5.534;2022-11-15T10:24:06;9.60;;;6.77;;
18296;SDS011;18066;52.106;5.534;2022-11-15T10:26:37;8.60;;;5.73;;
18296;SDS011;18066;52.106;5.534;2022-11-15T10:29:04;8.47;;;5.90;;
18296;SDS011;18066;52.106;5.534;2022-11-15T10:31:31;10.20;;;5.27;;
18296;SDS011;18066;52.106;5.534;2022-11-15T10:36:45;5.80;;;4.00;;
18296;SDS011;18066;52.106;5.534;2022-11-15T10:39:13;9.27;;;4.13;;
18296;SDS011;18066;52.106;5.534;2022-11-15T10:41:42;6.70;;;3.47;;
18296;SDS011;18066;52.106;5.534;2022-11-15T10:47:05;9.30;;;3.20;;
18296;SDS011;18066;52.106;5.534;2022-11-15T10:49:54;7.23;;;2.80;;
18296;SDS011;18066;52.106;5.534;2022-11-15T10:52:25;6.60;;;2.50;;
18296;SDS011;18066;52.106;5.534;2022-11-15T10:54:53;8.80;;;2.43;;
18296;SDS011;18066;52.106;5.534;2022-11-15T10:57:25;6.53;;;2.43;;
18296;SDS011;18066;52.106;5.534;2022-11-15T10:59:55;5.37;;;2.63;;
18296;SDS011;18066;52.106;5.534;2022-11-15T11:02:27;6.53;;;2.63;;
18296;SDS011;18066;52.106;5.534;2022-11-15T11:04:58;5.13;;;2.70;;
18296;SDS011;18066;52.106;5.534;2022-11-15T11:07:26;4.27;;;2.73;;
18296;SDS011;18066;52.106;5.534;2022-11-15T11:10:01;5.27;;;2.30;;
18296;SDS011;18066;52.106;5.534;2022-11-15T11:12:31;6.83;;;2.60;;
18296;SDS011;18066;52.106;5.534;2022-11-15T11:14:59;4.67;;;2.33;;
18296;SDS011;18066;52.106;5.534;2022-11-15T11:17:32;4.60;;;2.37;;
18296;SDS011;18066;52.106;5.534;2022-11-15T11:20:13;6.13;;;2.07;;
18296;SDS011;18066;52.106;5.534;2022-11-15T11:22:56;4.73;;;1.93;;
18296;SDS011;18066;52.106;5.534;2022-11-15T11:25:32;4.90;;;2.23;;
18296;SDS011;18066;52.106;5.534;2022-11-15T11:28:05;3.00;;;2.00;;
18296;SDS011;18066;52.106;5.534;2022-11-15T11:30:47;5.40;;;2.30;;
18296;SDS011;18066;52.106;5.534;2022-11-15T11:33:21;2.33;;;1.77;;
18296;SDS011;18066;52.106;5.534;2022-11-15T11:35:59;2.67;;;1.90;;
18296;SDS011;18066;52.106;5.534;2022-11-15T11:38:39;5.10;;;1.90;;
18296;SDS011;18066;52.106;5.534;2022-11-15T11:41:17;5.10;;;1.90;;
18296;SDS011;18066;52.106;5.534;2022-11-15T11:43:56;5.93;;;2.20;;
18296;SDS011;18066;52.106;5.534;2022-11-15T11:46:36;3.30;;;1.67;;
18296;SDS011;18066;52.106;5.534;2022-11-15T11:49:15;3.40;;;1.67;;
18296;SDS011;18066;52.106;5.534;2022-11-15T11:51:49;5.00;;;1.97;;
18296;SDS011;18066;52.106;5.534;2022-11-15T11:54:20;3.27;;;1.70;;
18296;SDS011;18066;52.106;5.534;2022-11-15T11:56:51;2.07;;;1.70;;
18296;SDS011;18066;52.106;5.534;2022-11-15T11:59:22;5.30;;;1.97;;
18296;SDS011;18066;52.106;5.534;2022-11-15T12:01:54;4.00;;;1.70;;
18296;SDS011;18066;52.106;5.534;2022-11-15T12:04:24;3.93;;;1.80;;
18296;SDS011;18066;52.106;5.534;2022-11-15T12:06:57;6.97;;;1.90;;
18296;SDS011;18066;52.106;5.534;2022-11-15T12:09:27;3.53;;;1.57;;
18296;SDS011;18066;52.106;5.534;2022-11-15T12:11:59;3.63;;;1.50;;
18296;SDS011;18066;52.106;5.534;2022-11-15T12:14:32;4.50;;;1.40;;
18296;SDS011;18066;52.106;5.534;2022-11-15T12:17:02;3.60;;;1.77;;
18296;SDS011;18066;52.106;5.534;2022-11-15T12:19:29;6.63;;;1.37;;
18296;SDS011;18066;52.106;5.534;2022-11-15T12:21:59;3.70;;;1.10;;
18296;SDS011;18066;52.106;5.534;2022-11-15T12:24:32;4.37;;;1.13;;
18296;SDS011;18066;52.106;5.534;2022-11-15T12:27:06;6.67;;;1.10;;
18296;SDS011;18066;52.106;5.534;2022-11-15T12:29:44;11.07;;;1.30;;
18296;SDS011;18066;52.106;5.534;2022-11-15T12:32:17;5.30;;;1.40;;
18296;SDS011;18066;52.106;5.534;2022-11-15T12:34:50;5.87;;;1.17;;
18296;SDS011;18066;52.106;5.534;2022-11-15T12:37:33;4.87;;;1.40;;
18296;SDS011;18066;52.106;5.534;2022-11-15T12:40:23;3.53;;;1.10;;
18296;SDS011;18066;52.106;5.534;2022-11-15T12:45:54;2.80;;;1.10;;
18296;SDS011;18066;52.106;5.534;2022-11-15T12:48:46;4.20;;;1.50;;
18296;SDS011;18066;52.106;5.534;2022-11-15T12:51:22;7.23;;;1.83;;
18296;SDS011;18066;52.106;5.534;2022-11-15T12:59:57;2.63;;;1.30;;
18296;SDS011;18066;52.106;5.534;2022-11-15T13:02:27;3.53;;;1.40;;
18296;SDS011;18066;52.106;5.534;2022-11-15T13:05:50;3.47;;;1.30;;
18296;SDS011;18066;52.106;5.534;2022-11-15T13:20:17;3.33;;;1.67;;
18296;SDS011;18066;52.106;5.534;2022-11-15T13:22:59;4.60;;;1.60;;
18296;SDS011;18066;52.106;5.534;2022-11-15T13:28:29;5.23;;;1.47;;
18296;SDS011;18066;52.106;5.534;2022-11-15T13:31:00;5.63;;;1.17;;
18296;SDS011;18066;52.106;5.534;2022-11-15T13:33:30;4.03;;;1.30;;
18296;SDS011;18066;52.106;5.534;2022-11-15T13:35:58;3.87;;;1.50;;
18296;SDS011;18066;52.106;5.534;2022-11-15T13:38:28;4.77;;;1.30;;
18296;SDS011;18066;52.106;5.534;2022-11-15T13:40:58;1.60;;;0.90;;
18296;SDS011;18066;52.106;5.534;2022-11-15T13:43:27;8.23;;;1.40;;
18296;SDS011;18066;52.106;5.534;2022-11-15T13:46:06;7.20;;;1.60;;
18296;SDS011;18066;52.106;5.534;2022-11-15T13:48:36;4.20;;;1.00;;
18296;SDS011;18066;52.106;5.534;2022-11-15T13:51:03;8.27;;;1.40;;
18296;SDS011;18066;52.106;5.534;2022-11-15T13:53:32;5.07;;;1.20;;
18296;SDS011;18066;52.106;5.534;2022-11-15T13:56:02;5.93;;;0.97;;
18296;SDS011;18066;52.106;5.534;2022-11-15T13:58:29;3.33;;;0.90;;
18296;SDS011;18066;52.106;5.534;2022-11-15T14:00:58;3.50;;;1.17;;
18296;SDS011;18066;52.106;5.534;2022-11-15T14:03:29;3.23;;;0.90;;
18296;SDS011;18066;52.106;5.534;2022-11-15T14:06:02;5.03;;;1.10;;
18296;SDS011;18066;52.106;5.534;2022-11-15T14:08:36;2.23;;;1.07;;
18296;SDS011;18066;52.106;5.534;2022-11-15T14:11:07;2.30;;;1.00;;
18296;SDS011;18066;52.106;5.534;2022-11-15T14:13:38;1.87;;;1.03;;
18296;SDS011;18066;52.106;5.534;2022-11-15T14:16:12;4.93;;;1.00;;
18296;SDS011;18066;52.106;5.534;2022-11-15T14:18:42;3.83;;;1.33;;
18296;SDS011;18066;52.106;5.534;2022-11-15T14:21:11;1.87;;;0.97;;
18296;SDS011;18066;52.106;5.534;2022-11-15T14:23:38;4.50;;;1.00;;
18296;SDS011;18066;52.106;5.534;2022-11-15T14:26:05;3.33;;;1.10;;
18296;SDS011;18066;52.106;5.534;2022-11-15T14:28:37;5.23;;;1.20;;
18296;SDS011;18066;52.106;5.534;2022-11-15T14:31:06;1.43;;;0.97;;
18296;SDS011;18066;52.106;5.534;2022-11-15T14:33:37;5.07;;;1.40;;
18296;SDS011;18066;52.106;5.534;2022-11-15T14:36:10;6.00;;;1.03;;
18296;SDS011;18066;52.106;5.534;2022-11-15T14:38:38;5.10;;;1.27;;
18296;SDS011;18066;52.106;5.534;2022-11-15T14:41:05;2.67;;;1.13;;
18296;SDS011;18066;52.106;5.534;2022-11-15T14:43:36;4.27;;;1.30;;
18296;SDS011;18066;52.106;5.534;2022-11-15T14:46:03;4.40;;;1.00;;
18296;SDS011;18066;52.106;5.534;2022-11-15T14:48:30;2.20;;;1.30;;
18296;SDS011;18066;52.106;5.534;2022-11-15T14:50:57;4.50;;;1.23;;
18296;SDS011;18066;52.106;5.534;2022-11-15T14:53:25;2.43;;;1.20;;
18296;SDS011;18066;52.106;5.534;2022-11-15T14:55:52;2.10;;;1.07;;
18296;SDS011;18066;52.106;5.534;2022-11-15T14:58:19;2.27;;;1.00;;
18296;SDS011;18066;52.106;5.534;2022-11-15T15:00:46;4.00;;;0.77;;
18296;SDS011;18066;52.106;5.534;2022-11-15T15:03:12;2.87;;;1.10;;
18296;SDS011;18066;52.106;5.534;2022-11-15T15:05:40;2.73;;;0.90;;
18296;SDS011;18066;52.106;5.534;2022-11-15T15:08:08;1.43;;;1.03;;
18296;SDS011;18066;52.106;5.534;2022-11-15T15:10:37;1.47;;;0.60;;
18296;SDS011;18066;52.106;5.534;2022-11-15T15:13:05;1.93;;;0.90;;
18296;SDS011;18066;52.106;5.534;2022-11-15T15:15:35;2.43;;;1.00;;
18296;SDS011;18066;52.106;5.534;2022-11-15T15:18:03;3.50;;;1.07;;
18296;SDS011;18066;52.106;5.534;2022-11-15T15:20:33;1.90;;;0.97;;
18296;SDS011;18066;52.106;5.534;2022-11-15T15:23:01;3.70;;;1.13;;
18296;SDS011;18066;52.106;5.534;2022-11-15T15:25:28;4.00;;;0.83;;
18296;SDS011;18066;52.106;5.534;2022-11-15T15:27:59;3.13;;;1.13;;